createdAt,value
2022-12-11T00:01:09.611Z,5.36
2022-12-11T00:04:12.155Z,5.37
2022-12-11T00:07:14.723Z,5.36
2022-12-11T00:10:17.283Z,5.16
2022-12-11T00:13:21.126Z,5.29
2022-12-11T00:16:26.863Z,5.25
2022-12-11T00:19:29.914Z,5.20
2022-12-11T00:22:32.489Z,5.18
2022-12-11T00:25:34.946Z,5.12
2022-12-11T00:28:39.184Z,5.19
2022-12-11T00:31:42.261Z,5.23
2022-12-11T00:34:44.843Z,5.20
2022-12-11T00:37:47.367Z,5.22
2022-12-11T00:40:50.573Z,5.28
2022-12-11T00:43:54.457Z,5.18
2022-12-11T00:46:56.999Z,5.15
2022-12-11T00:49:59.598Z,5.22
2022-12-11T00:53:02.531Z,5.24
2022-12-11T00:56:10.592Z,5.13
2022-12-11T00:59:14.441Z,5.12
2022-12-11T01:02:16.960Z,5.07
2022-12-11T01:05:19.639Z,5.30
2022-12-11T01:08:22.295Z,5.30
2022-12-11T01:11:24.943Z,5.22
2022-12-11T01:14:29.910Z,5.21
2022-12-11T01:17:32.411Z,5.10
2022-12-11T01:20:35.032Z,5.08
2022-12-11T01:23:38.323Z,5.15
2022-12-11T01:26:40.873Z,5.10
2022-12-11T01:29:44.796Z,5.15
2022-12-11T01:32:47.594Z,5.09
2022-12-11T01:35:50.048Z,5.06
2022-12-11T01:38:54.418Z,5.15
2022-12-11T01:41:57.771Z,5.11
2022-12-11T01:45:30.395Z,5.05
2022-12-11T01:48:34.088Z,5.02
2022-12-11T01:51:42.527Z,5.01
2022-12-11T01:54:48.381Z,5.02
2022-12-11T01:57:52.809Z,5.09
2022-12-11T02:00:58.161Z,5.06
2022-12-11T02:04:01.699Z,5.03
2022-12-11T02:07:04.461Z,5.04
2022-12-11T02:10:08.700Z,4.97
2022-12-11T02:13:17.145Z,5.06
2022-12-11T02:16:26.365Z,5.08
2022-12-11T02:19:44.367Z,5.08
2022-12-11T02:23:19.617Z,5.21
2022-12-11T02:26:35.118Z,5.22
2022-12-11T02:29:46.072Z,5.37
2022-12-11T02:32:54.762Z,5.33
2022-12-11T02:35:57.844Z,5.34
2022-12-11T02:39:03.500Z,5.32
2022-12-11T02:42:08.532Z,5.48
2022-12-11T02:45:13.951Z,5.35
2022-12-11T02:48:17.906Z,5.49
2022-12-11T02:51:25.766Z,5.46
2022-12-11T02:54:31.795Z,5.44
2022-12-11T02:57:39.712Z,5.45
2022-12-11T03:00:44.481Z,5.39
2022-12-11T03:03:47.611Z,5.44
2022-12-11T03:06:53.842Z,5.42
2022-12-11T03:09:56.547Z,5.57
2022-12-11T03:13:01.120Z,5.66
2022-12-11T03:16:14.536Z,5.57
2022-12-11T03:19:27.859Z,5.63
2022-12-11T03:22:37.344Z,5.68
2022-12-11T03:25:46.872Z,5.72
2022-12-11T03:28:56.301Z,5.70
2022-12-11T03:32:06.454Z,5.68
2022-12-11T03:35:13.964Z,5.56
2022-12-11T03:38:23.104Z,5.41
2022-12-11T03:41:28.166Z,5.54
2022-12-11T03:44:33.508Z,5.71
2022-12-11T03:47:39.976Z,5.59
2022-12-11T03:50:43.604Z,5.62
2022-12-11T03:53:47.467Z,5.61
2022-12-11T03:56:53.608Z,5.63
2022-12-11T03:59:56.512Z,5.67
2022-12-11T04:03:16.107Z,5.70
2022-12-11T04:06:18.757Z,5.69
2022-12-11T04:09:21.267Z,5.80
2022-12-11T04:12:24.051Z,5.82
2022-12-11T04:15:26.553Z,5.77
2022-12-11T04:19:05.604Z,5.79
2022-12-11T04:22:28.395Z,5.71
2022-12-11T04:25:30.915Z,5.80
2022-12-11T04:28:33.436Z,5.25
2022-12-11T04:31:36.009Z,4.87
2022-12-11T04:34:40.751Z,4.75
2022-12-11T04:37:43.375Z,4.51
2022-12-11T04:40:45.911Z,4.26
2022-12-11T04:43:48.455Z,4.09
2022-12-11T04:46:51.056Z,3.99
2022-12-11T04:49:55.073Z,3.82
2022-12-11T04:52:57.976Z,3.79
2022-12-11T04:56:00.498Z,3.80
2022-12-11T04:59:03.011Z,3.82
2022-12-11T05:02:05.654Z,3.82
2022-12-11T05:05:11.327Z,3.71
2022-12-11T05:08:13.970Z,3.70
2022-12-11T05:11:16.806Z,3.58
2022-12-11T05:14:19.438Z,3.56
2022-12-11T05:17:22.299Z,3.55
2022-12-11T05:20:26.224Z,3.61
2022-12-11T05:23:29.096Z,3.68
2022-12-11T05:26:31.631Z,3.71
2022-12-11T05:29:34.273Z,3.60
2022-12-11T05:32:36.976Z,3.54
2022-12-11T05:35:50.517Z,3.54
2022-12-11T05:38:53.621Z,3.60
2022-12-11T05:41:56.596Z,3.53
2022-12-11T05:44:59.100Z,3.53
2022-12-11T05:48:01.782Z,3.44
2022-12-11T05:51:08.348Z,3.51
2022-12-11T05:54:11.031Z,3.53
2022-12-11T05:57:13.562Z,3.42
2022-12-11T06:00:16.381Z,3.42
2022-12-11T06:03:18.934Z,3.41
2022-12-11T06:06:23.995Z,3.38
2022-12-11T06:09:26.467Z,3.28
2022-12-11T06:12:29.885Z,3.16
2022-12-11T06:15:32.849Z,3.17
2022-12-11T06:18:37.236Z,3.21
2022-12-11T06:21:41.276Z,3.14
2022-12-11T06:24:43.886Z,3.13
2022-12-11T06:27:46.412Z,3.18
2022-12-11T06:30:48.978Z,3.12
2022-12-11T06:33:51.489Z,3.12
2022-12-11T06:36:55.332Z,3.11
2022-12-11T06:39:57.911Z,3.09
2022-12-11T06:43:00.419Z,3.14
2022-12-11T06:46:04.644Z,3.25
2022-12-11T06:49:07.252Z,3.11
2022-12-11T06:52:15.088Z,3.11
2022-12-11T06:55:21.147Z,3.20
2022-12-11T06:58:23.752Z,3.25
2022-12-11T07:01:28.185Z,3.24
2022-12-11T07:04:30.993Z,3.19
2022-12-11T07:07:35.267Z,3.14
2022-12-11T07:10:39.569Z,3.10
2022-12-11T07:13:42.769Z,3.07
2022-12-11T07:16:45.303Z,3.13
2022-12-11T07:19:47.917Z,3.10
2022-12-11T07:22:51.809Z,3.18
2022-12-11T07:25:55.690Z,3.18
2022-12-11T07:29:00.540Z,3.15
2022-12-11T07:32:03.193Z,3.40
2022-12-11T07:35:06.764Z,3.52
2022-12-11T07:38:10.754Z,3.45
2022-12-11T07:41:15.367Z,3.45
2022-12-11T07:44:18.047Z,3.60
2022-12-11T07:47:20.707Z,3.60
2022-12-11T07:50:23.462Z,3.75
2022-12-11T07:53:27.327Z,3.77
2022-12-11T07:56:30.571Z,3.87
2022-12-11T07:59:33.889Z,3.88
2022-12-11T08:02:37.687Z,4.03
2022-12-11T08:05:40.386Z,3.88
2022-12-11T08:08:44.307Z,3.78
2022-12-11T08:11:48.554Z,3.76
2022-12-11T08:14:51.142Z,3.82
2022-12-11T08:17:53.745Z,3.71
2022-12-11T08:20:56.363Z,3.73
2022-12-11T08:24:00.380Z,3.78
2022-12-11T08:27:03.165Z,3.71
2022-12-11T08:30:07.063Z,3.78
2022-12-11T08:33:09.580Z,3.81
2022-12-11T08:36:14.573Z,3.72
2022-12-11T08:39:18.525Z,3.81
2022-12-11T08:42:21.368Z,3.81
2022-12-11T08:45:24.008Z,3.88
2022-12-11T08:48:26.494Z,3.95
2022-12-11T08:51:30.281Z,3.99
2022-12-11T08:54:37.069Z,4.09
2022-12-11T08:57:39.853Z,4.09
2022-12-11T09:00:42.502Z,3.99
2022-12-11T09:03:45.148Z,4.04
2022-12-11T09:06:47.694Z,4.06
2022-12-11T09:09:51.620Z,4.00
2022-12-11T09:12:54.156Z,3.91
2022-12-11T09:15:56.941Z,4.08
2022-12-11T09:19:00.248Z,4.04
2022-12-11T09:22:02.856Z,4.24
2022-12-11T09:25:07.964Z,4.40
2022-12-11T09:28:10.682Z,4.27
2022-12-11T09:31:15.844Z,4.36
2022-12-11T09:34:18.754Z,4.39
2022-12-11T09:37:21.417Z,4.37
2022-12-11T09:40:25.892Z,4.23
2022-12-11T09:43:38.089Z,4.24
2022-12-11T09:46:41.748Z,4.19
2022-12-11T09:49:46.362Z,4.12
2022-12-11T09:53:00.288Z,4.18
2022-12-11T09:56:16.511Z,4.14
2022-12-11T09:59:28.884Z,4.07
2022-12-11T10:02:40.871Z,4.18
2022-12-11T10:05:51.240Z,4.31
2022-12-11T10:09:07.018Z,4.28
2022-12-11T10:12:23.716Z,4.31
2022-12-11T10:15:35.414Z,4.30
2022-12-11T10:18:38.762Z,4.35
2022-12-11T10:21:42.464Z,4.43
2022-12-11T10:25:10.806Z,4.55
2022-12-11T10:28:16.949Z,4.48
2022-12-11T10:31:23.985Z,4.50
2022-12-11T10:34:34.604Z,4.55
2022-12-11T10:37:37.113Z,4.46
2022-12-11T10:40:43.519Z,4.25
2022-12-11T10:43:49.668Z,4.13
2022-12-11T10:47:03.595Z,4.07
2022-12-11T10:50:06.642Z,4.07
2022-12-11T10:53:21.185Z,4.14
2022-12-11T10:56:28.606Z,4.18
2022-12-11T10:59:36.271Z,4.15
2022-12-11T11:02:42.812Z,4.28
2022-12-11T11:05:49.353Z,4.36
2022-12-11T11:08:54.188Z,4.41
2022-12-11T11:11:56.857Z,4.37
2022-12-11T11:15:02.828Z,4.35
2022-12-11T11:18:12.878Z,4.38
2022-12-11T11:21:17.736Z,4.43
2022-12-11T11:24:33.392Z,4.46
2022-12-11T11:27:43.569Z,4.44
2022-12-11T11:30:58.410Z,4.42
2022-12-11T11:34:05.646Z,4.38
2022-12-11T11:37:24.186Z,4.54
2022-12-11T11:40:30.528Z,4.70
2022-12-11T11:43:38.809Z,4.72
2022-12-11T11:46:47.801Z,4.55
2022-12-11T11:49:58.265Z,4.51
2022-12-11T11:53:08.532Z,4.54
2022-12-11T11:56:21.298Z,4.55
2022-12-11T11:59:31.248Z,4.58
2022-12-11T12:02:35.681Z,4.57
2022-12-11T12:05:46.709Z,4.61
2022-12-11T12:08:58.000Z,4.48
2022-12-11T12:12:10.720Z,4.59
2022-12-11T12:15:26.682Z,4.50
2022-12-11T12:18:39.642Z,4.48
2022-12-11T12:21:48.107Z,4.42
2022-12-11T12:25:03.345Z,4.40
2022-12-11T12:28:19.027Z,4.38
2022-12-11T12:31:37.778Z,4.29
2022-12-11T12:34:56.149Z,4.23
2022-12-11T12:38:09.431Z,4.25
2022-12-11T12:41:20.094Z,4.20
2022-12-11T12:44:25.077Z,4.17
2022-12-11T12:47:30.700Z,4.14
2022-12-11T12:50:43.016Z,4.21
2022-12-11T12:54:35.810Z,4.30
2022-12-11T12:57:40.099Z,4.14
2022-12-11T13:00:44.176Z,4.30
2022-12-11T13:03:54.354Z,4.33
2022-12-11T13:06:58.382Z,4.50
2022-12-11T13:10:07.953Z,4.39
2022-12-11T13:13:32.033Z,4.28
2022-12-11T13:16:37.208Z,4.14
2022-12-11T13:19:42.777Z,3.98
2022-12-11T13:23:18.435Z,3.94
2022-12-11T13:26:30.580Z,3.95
2022-12-11T13:29:36.113Z,3.92
2022-12-11T13:32:39.638Z,3.92
2022-12-11T13:35:43.000Z,3.96
2022-12-11T13:38:49.053Z,4.09
2022-12-11T13:41:57.259Z,3.87
2022-12-11T13:45:01.619Z,3.83
2022-12-11T13:48:16.636Z,3.98
2022-12-11T13:51:21.883Z,4.00
2022-12-11T13:54:25.677Z,4.02
2022-12-11T13:57:29.810Z,4.11
2022-12-11T14:00:33.040Z,4.04
2022-12-11T14:03:35.913Z,4.08
2022-12-11T14:06:39.849Z,4.08
2022-12-11T14:09:45.704Z,4.10
2022-12-11T14:12:53.660Z,3.92
2022-12-11T14:15:56.300Z,4.05
2022-12-11T14:19:04.179Z,4.06
2022-12-11T14:22:08.003Z,3.97
2022-12-11T14:25:24.840Z,3.89
2022-12-11T14:28:35.690Z,3.87
2022-12-11T14:31:42.311Z,3.86
2022-12-11T14:34:47.816Z,3.86
2022-12-11T14:37:52.408Z,3.75
2022-12-11T14:40:59.308Z,3.94
2022-12-11T14:44:07.137Z,3.96
2022-12-11T14:47:15.791Z,3.95
2022-12-11T14:50:23.135Z,3.91
2022-12-11T14:53:29.272Z,3.93
2022-12-11T14:56:32.816Z,4.09
2022-12-11T14:59:44.153Z,3.80
2022-12-11T15:02:57.476Z,3.72
2022-12-11T15:06:00.549Z,3.64
2022-12-11T15:09:16.477Z,3.62
2022-12-11T15:12:20.368Z,3.74
2022-12-11T15:15:24.857Z,3.67
2022-12-11T15:18:31.102Z,3.60
2022-12-11T15:21:36.282Z,3.62
2022-12-11T15:24:42.033Z,3.70
2022-12-11T15:27:44.759Z,3.79
2022-12-11T15:30:57.082Z,3.62
2022-12-11T15:34:02.455Z,3.79
2022-12-11T15:37:17.723Z,3.89
2022-12-11T15:40:21.845Z,3.74
2022-12-11T15:43:25.531Z,3.83
2022-12-11T15:46:30.700Z,3.68
2022-12-11T15:49:33.466Z,3.38
2022-12-11T15:52:36.324Z,3.57
2022-12-11T15:55:39.529Z,3.55
2022-12-11T15:58:44.588Z,3.52
2022-12-11T16:01:49.252Z,3.49
2022-12-11T16:04:52.094Z,3.43
2022-12-11T16:07:56.549Z,3.54
2022-12-11T16:10:59.164Z,3.48
2022-12-11T16:14:05.940Z,3.30
2022-12-11T16:17:13.200Z,3.41
2022-12-11T16:20:15.968Z,3.26
2022-12-11T16:23:19.132Z,3.38
2022-12-11T16:26:21.719Z,3.38
2022-12-11T16:29:24.355Z,3.44
2022-12-11T16:32:28.226Z,3.47
2022-12-11T16:35:31.250Z,3.44
2022-12-11T16:38:35.766Z,3.57
2022-12-11T16:41:38.461Z,3.50
2022-12-11T16:44:44.371Z,3.55
2022-12-11T16:47:48.866Z,3.48
2022-12-11T16:50:53.611Z,3.52
2022-12-11T16:53:56.311Z,3.50
2022-12-11T16:56:59.090Z,3.55
2022-12-11T17:00:01.956Z,3.54
2022-12-11T17:03:06.519Z,3.60
2022-12-11T17:06:10.517Z,3.57
2022-12-11T17:09:13.415Z,3.46
2022-12-11T17:12:15.995Z,3.48
2022-12-11T17:15:19.025Z,3.43
2022-12-11T17:18:23.101Z,3.52
2022-12-11T17:21:25.728Z,3.49
2022-12-11T17:24:29.563Z,3.50
2022-12-11T17:27:33.612Z,3.51
2022-12-11T17:30:40.746Z,3.44
2022-12-11T17:33:45.692Z,3.47
2022-12-11T17:36:48.567Z,3.45
2022-12-11T17:39:51.228Z,3.43
2022-12-11T17:42:53.904Z,3.36
2022-12-11T17:45:56.711Z,3.38
2022-12-11T17:49:02.410Z,3.33
2022-12-11T17:52:05.367Z,3.29
2022-12-11T17:55:09.062Z,3.25
2022-12-11T17:58:12.237Z,3.19
2022-12-11T18:01:14.967Z,3.23
2022-12-11T18:04:19.072Z,3.27
2022-12-11T18:07:22.617Z,3.27
2022-12-11T18:10:26.887Z,3.30
2022-12-11T18:13:29.736Z,3.28
2022-12-11T18:16:35.085Z,3.36
2022-12-11T18:19:45.698Z,3.28
2022-12-11T18:22:49.124Z,3.14
2022-12-11T18:25:52.275Z,3.17
2022-12-11T18:28:55.245Z,3.16
2022-12-11T18:31:58.108Z,3.17
2022-12-11T18:35:03.109Z,3.14
2022-12-11T18:38:06.088Z,3.14
2022-12-11T18:41:11.702Z,3.16
2022-12-11T18:44:21.702Z,3.09
2022-12-11T18:47:24.676Z,3.10
2022-12-11T18:50:28.891Z,3.07
2022-12-11T18:53:34.720Z,2.89
2022-12-11T18:56:38.779Z,2.77
2022-12-11T18:59:41.505Z,2.74
2022-12-11T19:02:44.212Z,2.64
2022-12-11T19:05:48.455Z,2.72
2022-12-11T19:08:51.621Z,2.77
2022-12-11T19:11:54.889Z,2.72
2022-12-11T19:14:58.806Z,2.77
2022-12-11T19:18:01.641Z,2.83
2022-12-11T19:21:12.519Z,2.85
2022-12-11T19:24:19.784Z,2.85
2022-12-11T19:27:22.631Z,2.90
2022-12-11T19:30:26.120Z,2.83
2022-12-11T19:33:29.312Z,2.83
2022-12-11T19:36:34.844Z,2.80
2022-12-11T19:39:38.637Z,2.87
2022-12-11T19:42:41.880Z,2.82
2022-12-11T19:45:45.882Z,2.75
2022-12-11T19:48:49.898Z,2.71
2022-12-11T19:51:54.051Z,2.73
2022-12-11T19:55:01.298Z,2.59
2022-12-11T19:58:04.025Z,2.65
2022-12-11T20:01:07.497Z,2.61
2022-12-11T20:04:14.839Z,2.81
2022-12-11T20:07:19.188Z,2.67
2022-12-11T20:10:22.048Z,2.57
2022-12-11T20:13:24.739Z,2.59
2022-12-11T20:16:46.331Z,2.54
2022-12-11T20:19:50.456Z,2.52
2022-12-11T20:22:57.341Z,2.32
2022-12-11T20:26:06.444Z,2.30
2022-12-11T20:29:09.314Z,2.29
2022-12-11T20:32:12.448Z,2.25
2022-12-11T20:35:15.157Z,2.24
2022-12-11T20:38:20.984Z,2.21
2022-12-11T20:41:25.235Z,2.15
2022-12-11T20:44:27.991Z,2.11
2022-12-11T20:47:30.748Z,2.14
2022-12-11T20:50:33.312Z,2.11
2022-12-11T20:53:37.526Z,2.22
2022-12-11T20:56:40.259Z,2.25
2022-12-11T20:59:44.439Z,2.33
2022-12-11T21:02:49.600Z,2.29
2022-12-11T21:05:53.129Z,2.25
2022-12-11T21:08:57.522Z,2.11
2022-12-11T21:12:01.606Z,1.96
2022-12-11T21:15:05.154Z,1.97
2022-12-11T21:18:08.239Z,1.97
2022-12-11T21:21:10.944Z,2.10
2022-12-11T21:24:17.564Z,2.10
2022-12-11T21:27:22.982Z,2.14
2022-12-11T21:30:27.387Z,2.11
2022-12-11T21:33:30.067Z,2.07
2022-12-11T21:36:33.021Z,1.94
2022-12-11T21:39:39.437Z,1.92
2022-12-11T21:42:42.134Z,2.04
2022-12-11T21:46:01.752Z,2.07
2022-12-11T21:49:04.884Z,2.01
2022-12-11T21:52:25.736Z,1.92
2022-12-11T21:55:29.575Z,1.82
2022-12-11T21:58:32.075Z,1.89
2022-12-11T22:01:37.528Z,1.93
2022-12-11T22:04:40.241Z,2.01
2022-12-11T22:07:42.791Z,2.01
2022-12-11T22:10:46.939Z,1.98
2022-12-11T22:13:49.539Z,1.93
2022-12-11T22:16:52.116Z,2.02
2022-12-11T22:19:54.691Z,1.95
2022-12-11T22:22:57.477Z,1.98
2022-12-11T22:26:01.371Z,1.92
2022-12-11T22:29:03.912Z,2.06
2022-12-11T22:32:06.612Z,1.99
2022-12-11T22:35:10.547Z,1.96
2022-12-11T22:38:13.413Z,1.97
2022-12-11T22:41:24.463Z,2.07
2022-12-11T22:44:27.186Z,2.04
2022-12-11T22:47:29.739Z,1.98
2022-12-11T22:50:36.591Z,1.74
2022-12-11T22:53:39.151Z,1.72
2022-12-11T22:56:43.247Z,1.77
2022-12-11T22:59:46.077Z,1.68
2022-12-11T23:02:48.976Z,1.77
2022-12-11T23:05:51.596Z,1.70
2022-12-11T23:08:57.437Z,1.52
2022-12-11T23:12:01.631Z,1.68
2022-12-11T23:15:04.987Z,1.70
2022-12-11T23:18:07.610Z,1.56
2022-12-11T23:21:11.128Z,1.51
2022-12-11T23:24:13.660Z,1.45
2022-12-11T23:27:17.621Z,1.38
2022-12-11T23:30:21.575Z,1.28
2022-12-11T23:33:24.210Z,1.32
2022-12-11T23:36:28.042Z,1.39
2022-12-11T23:39:30.509Z,1.39
2022-12-11T23:42:34.984Z,1.37
2022-12-11T23:45:37.896Z,1.29
2022-12-11T23:48:40.952Z,1.24
2022-12-11T23:51:43.659Z,1.14
2022-12-11T23:54:46.458Z,1.03
2022-12-11T23:57:50.440Z,1.10
